Luray, Indiana
Current Conditions -  °F | °C
As of 10:53 AM on Monday 22 Dec 2014 (Local Time) from KMIE Reporting Station
Overcast Overcast  
Wind Chill: 32°   Ceiling: 7000
Heat Index: 38°   Visibility: 9mi
Dew Point: 31°   Wind: 8mph
Humidity: 76%   Direction: 140°SE
Pressure: 29.95"   Gusts: NA
Location:  40.0191°N, 85.354°W
Report Text: KMIE 221553Z 14007KT 9SM FEW044 OVC070 03/M01 A2995 RMK AO2 SLP148 T00331006
Loading
Personal Weather Stations






























Interactive Weather Map New forecast layout! Learn more

10-Day Weather Forecast

Advertisements
Track Severe Weather on mobile